createdAt,value
2019-04-03T00:00:42.590Z,25.24
2019-04-03T00:03:16.151Z,24.76
2019-04-03T00:05:49.958Z,24.54
2019-04-03T00:08:23.502Z,24.69
2019-04-03T00:10:57.140Z,24.94
2019-04-03T00:13:32.273Z,24.46
2019-04-03T00:16:06.048Z,24.28
2019-04-03T00:18:40.745Z,24.70
2019-04-03T00:21:15.727Z,24.22
2019-04-03T00:23:49.414Z,23.12
2019-04-03T00:26:22.955Z,23.77
2019-04-03T00:28:56.286Z,23.05
2019-04-03T00:31:30.086Z,22.62
2019-04-03T00:34:04.392Z,22.55
2019-04-03T00:36:38.240Z,21.94
2019-04-03T00:39:11.712Z,22.35
2019-04-03T00:41:45.436Z,21.40
2019-04-03T00:44:20.989Z,21.62
2019-04-03T00:46:56.912Z,21.83
2019-04-03T00:49:32.633Z,21.65
2019-04-03T00:52:46.809Z,21.42
2019-04-03T00:55:20.535Z,21.47
2019-04-03T00:57:56.071Z,21.56
2019-04-03T01:00:30.524Z,21.33
2019-04-03T01:03:04.219Z,21.43
2019-04-03T01:05:37.891Z,21.25
2019-04-03T01:08:11.508Z,21.32
2019-04-03T01:10:45.099Z,21.72
2019-04-03T01:13:19.577Z,21.00
2019-04-03T01:15:53.235Z,21.27
2019-04-03T01:18:29.976Z,21.43
2019-04-03T01:21:06.007Z,21.19
2019-04-03T01:23:40.260Z,21.21
2019-04-03T01:26:13.542Z,20.79
2019-04-03T01:28:48.283Z,20.88
2019-04-03T01:31:21.645Z,21.04
2019-04-03T01:33:55.393Z,21.17
2019-04-03T01:36:32.137Z,20.16
2019-04-03T01:39:06.686Z,20.34
2019-04-03T01:41:40.271Z,20.17
2019-04-03T01:44:13.865Z,20.46
2019-04-03T01:46:48.787Z,20.62
2019-04-03T01:49:22.277Z,20.11
2019-04-03T01:51:55.762Z,20.30
2019-04-03T01:54:29.090Z,20.30
2019-04-03T01:57:02.883Z,20.08
2019-04-03T01:59:37.574Z,19.98
2019-04-03T02:02:11.328Z,20.13
2019-04-03T02:04:46.455Z,20.26
2019-04-03T02:07:19.815Z,20.03
2019-04-03T02:09:53.335Z,19.67
2019-04-03T02:12:27.022Z,19.31
2019-04-03T02:15:00.886Z,19.28
2019-04-03T02:17:34.627Z,19.48
2019-04-03T02:20:08.293Z,19.08
2019-04-03T02:22:41.696Z,19.64
2019-04-03T02:25:15.497Z,19.40
2019-04-03T02:27:49.053Z,19.47
2019-04-03T02:30:22.758Z,19.17
2019-04-03T02:32:57.344Z,19.54
2019-04-03T02:35:31.366Z,19.43
2019-04-03T02:38:04.835Z,19.86
2019-04-03T02:40:40.606Z,19.90
2019-04-03T02:43:15.444Z,19.88
2019-04-03T02:45:49.168Z,19.55
2019-04-03T02:48:22.944Z,19.85
2019-04-03T02:50:58.446Z,19.75
2019-04-03T02:53:33.115Z,19.95
2019-04-03T02:56:11.631Z,19.99
2019-04-03T02:58:42.759Z,20.26
2019-04-03T03:01:16.489Z,19.44
2019-04-03T03:03:50.758Z,20.15
2019-04-03T03:06:25.164Z,19.62
2019-04-03T03:08:59.866Z,19.55
2019-04-03T03:11:33.932Z,19.74
2019-04-03T03:14:08.998Z,19.84
2019-04-03T03:16:42.866Z,19.01
2019-04-03T03:19:17.527Z,19.21
2019-04-03T03:21:54.372Z,19.51
2019-04-03T03:24:30.046Z,19.97
2019-04-03T03:27:06.127Z,19.48
2019-04-03T03:29:39.570Z,19.34
2019-04-03T03:32:19.916Z,19.12
2019-04-03T03:34:57.380Z,19.00
2019-04-03T03:37:23.210Z,18.90
2019-04-03T03:39:58.809Z,18.48
2019-04-03T03:42:34.213Z,18.92
2019-04-03T03:45:11.122Z,18.82
2019-04-03T03:47:45.746Z,18.91
2019-04-03T03:50:24.867Z,19.08
2019-04-03T03:53:00.415Z,19.11
2019-04-03T03:55:36.465Z,18.96
2019-04-03T03:58:12.145Z,19.22
2019-04-03T04:00:51.080Z,19.03
2019-04-03T04:03:21.608Z,18.29
2019-04-03T04:05:56.670Z,18.55
2019-04-03T04:08:33.144Z,18.72
2019-04-03T04:11:07.550Z,18.50
2019-04-03T04:13:41.150Z,18.05
2019-04-03T04:16:15.343Z,17.98
2019-04-03T04:18:50.180Z,18.12
2019-04-03T04:21:24.002Z,17.63
2019-04-03T04:23:58.637Z,17.63
2019-04-03T04:26:32.780Z,17.39
2019-04-03T04:29:10.170Z,17.29
2019-04-03T04:31:43.442Z,16.99
2019-04-03T04:34:18.835Z,16.69
2019-04-03T04:36:55.344Z,16.66
2019-04-03T04:39:28.461Z,16.94
2019-04-03T04:42:04.365Z,16.61
2019-04-03T04:44:37.127Z,16.59
2019-04-03T04:47:10.605Z,16.87
2019-04-03T04:49:44.473Z,16.22
2019-04-03T04:52:18.100Z,16.25
2019-04-03T04:54:51.770Z,16.07
2019-04-03T04:57:25.541Z,15.78
2019-04-03T04:59:59.059Z,16.09
2019-04-03T05:02:33.709Z,16.23
2019-04-03T05:05:09.239Z,15.74
2019-04-03T05:07:43.190Z,16.08
2019-04-03T05:10:17.986Z,15.50
2019-04-03T05:12:51.686Z,15.89
2019-04-03T05:15:25.093Z,15.57
2019-04-03T05:17:59.011Z,15.23
2019-04-03T05:20:33.053Z,15.35
2019-04-03T05:23:06.757Z,15.95
2019-04-03T05:25:42.655Z,15.22
2019-04-03T05:28:18.203Z,15.20
2019-04-03T05:30:51.825Z,15.06
2019-04-03T05:33:25.435Z,15.15
2019-04-03T05:36:00.059Z,15.33
2019-04-03T05:38:33.779Z,14.81
2019-04-03T05:41:07.634Z,15.19
2019-04-03T05:43:40.991Z,14.50
2019-04-03T05:46:15.076Z,14.22
2019-04-03T05:48:49.097Z,14.29
2019-04-03T05:51:22.912Z,14.00
2019-04-03T05:53:58.884Z,14.19
2019-04-03T05:56:32.727Z,14.14
2019-04-03T05:59:06.509Z,14.30
2019-04-03T06:01:41.961Z,14.67
2019-04-03T06:04:19.806Z,14.72
2019-04-03T06:06:54.568Z,14.95
2019-04-03T06:09:29.930Z,14.98
2019-04-03T06:12:03.472Z,14.91
2019-04-03T06:14:39.128Z,14.92
2019-04-03T06:17:13.033Z,15.16
2019-04-03T06:19:46.962Z,14.95
2019-04-03T06:22:21.980Z,14.32
2019-04-03T06:24:56.949Z,14.65
2019-04-03T06:27:30.914Z,14.50
2019-04-03T06:30:05.442Z,14.62
2019-04-03T06:32:39.643Z,15.04
2019-04-03T06:35:14.401Z,14.93
2019-04-03T06:37:48.246Z,14.44
2019-04-03T06:40:22.065Z,14.71
2019-04-03T06:42:55.731Z,14.87
2019-04-03T06:45:29.469Z,14.46
2019-04-03T06:48:05.132Z,14.80
2019-04-03T06:50:38.184Z,14.59
2019-04-03T06:53:11.887Z,14.87
2019-04-03T06:55:45.999Z,14.77
2019-04-03T06:58:19.850Z,14.99
2019-04-03T07:00:54.782Z,15.20
2019-04-03T07:03:28.266Z,14.94
2019-04-03T07:06:04.441Z,15.43
2019-04-03T07:08:40.911Z,15.13
2019-04-03T07:11:23.114Z,15.13
2019-04-03T07:13:53.009Z,15.29
2019-04-03T07:16:25.109Z,15.19
2019-04-03T07:18:58.827Z,15.24
2019-04-03T07:21:34.561Z,15.17
2019-04-03T07:24:08.464Z,15.41
2019-04-03T07:26:42.746Z,15.65
2019-04-03T07:29:17.398Z,15.38
2019-04-03T07:31:55.174Z,15.37
2019-04-03T07:34:29.088Z,15.51
2019-04-03T07:37:02.742Z,15.26
2019-04-03T07:39:36.415Z,15.19
2019-04-03T07:42:10.111Z,15.33
2019-04-03T07:44:43.774Z,15.60
2019-04-03T07:47:19.026Z,15.14
2019-04-03T07:49:52.645Z,15.26
2019-04-03T07:52:26.419Z,14.88
2019-04-03T07:55:00.200Z,15.51
2019-04-03T07:57:33.965Z,15.29
2019-04-03T08:00:09.521Z,15.38
2019-04-03T08:02:47.919Z,15.47
2019-04-03T08:05:19.693Z,15.26
2019-04-03T08:07:53.474Z,15.57
2019-04-03T08:10:29.371Z,15.64
2019-04-03T08:13:02.214Z,15.77
2019-04-03T08:15:35.985Z,15.93
2019-04-03T08:18:10.270Z,16.29
2019-04-03T08:20:44.073Z,15.98
2019-04-03T08:23:18.100Z,16.59
2019-04-03T08:25:53.921Z,16.44
2019-04-03T08:28:29.532Z,16.48
2019-04-03T08:31:01.354Z,16.62
2019-04-03T08:33:35.287Z,16.52
2019-04-03T08:36:09.077Z,16.65
2019-04-03T08:38:44.029Z,16.46
2019-04-03T08:41:37.393Z,16.43
2019-04-03T08:44:12.248Z,16.70
2019-04-03T08:46:46.398Z,17.19
2019-04-03T08:49:25.348Z,17.18
2019-04-03T08:51:57.369Z,17.34
2019-04-03T08:54:32.077Z,17.52
2019-04-03T08:57:05.682Z,17.40
2019-04-03T08:59:40.391Z,17.45
2019-04-03T09:02:14.531Z,17.60
2019-04-03T09:04:48.790Z,17.81
2019-04-03T09:07:24.714Z,17.77
2019-04-03T09:10:00.593Z,18.01
2019-04-03T09:12:33.013Z,18.09
2019-04-03T09:15:07.636Z,18.53
2019-04-03T09:17:43.779Z,18.11
2019-04-03T09:20:17.599Z,18.22
2019-04-03T09:22:52.992Z,18.21
2019-04-03T09:25:27.824Z,18.40
2019-04-03T09:28:01.834Z,18.55
2019-04-03T09:30:35.853Z,18.84
2019-04-03T09:33:09.236Z,18.94
2019-04-03T09:35:43.323Z,19.13
2019-04-03T09:38:16.700Z,19.16
2019-04-03T09:40:50.581Z,19.43
2019-04-03T09:43:24.789Z,19.68
2019-04-03T09:46:00.349Z,19.68
2019-04-03T09:48:34.855Z,19.36
2019-04-03T09:51:09.824Z,19.61
2019-04-03T09:53:43.383Z,19.54
2019-04-03T09:56:16.981Z,19.65
2019-04-03T09:58:51.171Z,19.79
2019-04-03T10:01:27.108Z,19.80
2019-04-03T10:04:01.061Z,20.09
2019-04-03T10:06:35.316Z,20.08
2019-04-03T10:09:11.893Z,20.04
2019-04-03T10:11:45.518Z,20.27
2019-04-03T10:14:25.750Z,20.26
2019-04-03T10:17:01.593Z,20.34
2019-04-03T10:19:39.105Z,20.58
2019-04-03T10:22:14.077Z,20.67
2019-04-03T10:24:48.681Z,20.51
2019-04-03T10:27:25.111Z,20.50
2019-04-03T10:29:59.852Z,20.44
2019-04-03T10:32:35.598Z,20.30
2019-04-03T10:35:10.390Z,20.43
2019-04-03T10:37:46.314Z,20.53
2019-04-03T10:40:19.956Z,20.68
2019-04-03T10:42:54.048Z,20.74
2019-04-03T10:45:30.294Z,21.05
2019-04-03T10:48:03.946Z,20.82
2019-04-03T10:50:38.277Z,20.84
2019-04-03T10:53:19.190Z,20.55
2019-04-03T10:55:51.591Z,20.89
2019-04-03T10:58:27.224Z,20.76
2019-04-03T11:01:03.565Z,20.88
2019-04-03T11:03:35.972Z,20.96
2019-04-03T11:06:11.756Z,20.92
2019-04-03T11:08:45.516Z,21.07
2019-04-03T11:11:19.210Z,21.32
2019-04-03T11:13:57.072Z,21.02
2019-04-03T11:16:31.022Z,21.77
2019-04-03T11:19:06.627Z,21.43
2019-04-03T11:21:43.343Z,21.41
2019-04-03T11:24:16.857Z,21.47
2019-04-03T11:26:52.055Z,21.39
2019-04-03T11:29:27.716Z,21.42
2019-04-03T11:32:02.270Z,21.51
2019-04-03T11:34:37.908Z,21.58
2019-04-03T11:37:12.706Z,21.56
2019-04-03T11:40:03.706Z,21.96
2019-04-03T11:42:34.347Z,22.50
2019-04-03T11:45:23.935Z,22.84
2019-04-03T11:48:01.336Z,23.24
2019-04-03T11:50:38.918Z,23.64
2019-04-03T11:53:17.420Z,24.16
2019-04-03T11:56:00.970Z,24.51
2019-04-03T12:01:33.147Z,25.57
2019-04-03T12:04:10.549Z,25.76
2019-04-03T12:06:55.240Z,26.34
2019-04-03T12:09:31.606Z,26.63
2019-04-03T12:12:09.368Z,27.11
2019-04-03T12:14:46.798Z,27.15
2019-04-03T12:17:23.943Z,27.64
2019-04-03T12:20:02.284Z,27.48
2019-04-03T12:22:38.521Z,27.58
2019-04-03T12:25:15.173Z,27.77
2019-04-03T12:28:08.739Z,27.63
2019-04-03T12:30:43.001Z,28.01
2019-04-03T12:33:23.253Z,28.08
2019-04-03T12:35:58.538Z,28.47
2019-04-03T12:38:33.017Z,28.28
2019-04-03T12:41:07.685Z,28.40
2019-04-03T12:43:42.825Z,28.56
2019-04-03T12:46:17.423Z,28.89
2019-04-03T12:48:52.304Z,28.77
2019-04-03T12:51:27.024Z,28.90
2019-04-03T12:54:02.093Z,29.01
2019-04-03T12:56:36.262Z,29.18
2019-04-03T12:59:10.638Z,29.40
2019-04-03T13:01:50.227Z,29.55
2019-04-03T13:04:31.176Z,29.77
2019-04-03T13:07:05.344Z,29.86
2019-04-03T13:09:40.401Z,29.71
2019-04-03T13:12:15.161Z,29.96
2019-04-03T13:14:50.815Z,29.74
2019-04-03T13:17:27.903Z,29.79
2019-04-03T13:20:05.932Z,29.89
2019-04-03T13:22:42.605Z,29.96
2019-04-03T13:25:37.920Z,29.85
2019-04-03T13:28:14.049Z,29.77
2019-04-03T13:30:49.030Z,29.72
2019-04-03T13:33:24.410Z,29.87
2019-04-03T13:39:21.155Z,30.09
2019-04-03T13:44:26.063Z,30.24
2019-04-03T13:46:58.738Z,30.48
2019-04-03T13:49:34.867Z,30.52
2019-04-03T13:52:09.989Z,30.71
2019-04-03T13:54:46.797Z,30.77
2019-04-03T13:57:21.608Z,30.83
2019-04-03T14:00:01.011Z,31.09
2019-04-03T14:02:32.168Z,31.18
2019-04-03T14:05:09.961Z,31.39
2019-04-03T14:07:44.971Z,31.67
2019-04-03T14:10:20.863Z,31.79
2019-04-03T14:12:55.675Z,31.96
2019-04-03T14:15:31.549Z,31.77
2019-04-03T14:18:07.891Z,31.97
2019-04-03T14:20:45.756Z,32.08
2019-04-03T14:23:40.994Z,32.09
2019-04-03T14:26:15.214Z,32.21
2019-04-03T14:28:50.260Z,32.79
2019-04-03T14:31:34.330Z,32.47
2019-04-03T14:34:01.761Z,32.59
2019-04-03T14:36:36.905Z,32.71
2019-04-03T14:39:11.614Z,32.74
2019-04-03T14:41:46.433Z,33.00
2019-04-03T14:44:40.518Z,33.13
2019-04-03T14:47:15.763Z,33.33
2019-04-03T14:49:51.046Z,33.63
2019-04-03T14:52:24.954Z,33.51
2019-04-03T14:55:14.790Z,33.71
2019-04-03T14:57:35.907Z,33.82
2019-04-03T15:00:25.123Z,33.98
2019-04-03T15:02:46.930Z,34.10
2019-04-03T15:05:20.823Z,34.14
2019-04-03T15:07:55.296Z,34.11
2019-04-03T15:10:30.626Z,34.16
2019-04-03T15:13:04.254Z,34.29
2019-04-03T15:15:37.955Z,34.46
2019-04-03T15:18:12.031Z,34.50
2019-04-03T15:20:48.691Z,34.77
2019-04-03T15:23:20.925Z,35.07
2019-04-03T15:25:54.984Z,35.34
2019-04-03T15:28:30.567Z,35.39
2019-04-03T15:31:03.649Z,35.73
2019-04-03T15:33:37.442Z,36.00
2019-04-03T15:36:11.326Z,36.00
2019-04-03T15:38:46.264Z,36.09
2019-04-03T15:41:28.642Z,36.00
2019-04-03T15:44:01.913Z,36.16
2019-04-03T15:46:36.065Z,36.51
2019-04-03T15:49:10.018Z,36.79
2019-04-03T15:51:44.217Z,36.97
2019-04-03T15:54:18.499Z,37.13
2019-04-03T15:56:52.996Z,37.23
2019-04-03T15:59:29.017Z,37.25
2019-04-03T16:02:04.927Z,37.34
2019-04-03T16:04:39.737Z,37.30
2019-04-03T16:07:14.935Z,37.85
2019-04-03T16:13:17.574Z,38.02
2019-04-03T16:15:54.411Z,37.86
2019-04-03T16:18:26.568Z,37.97
2019-04-03T16:21:00.426Z,38.11
2019-04-03T16:23:36.301Z,38.23
2019-04-03T16:26:29.161Z,38.30
2019-04-03T16:29:04.083Z,38.38
2019-04-03T16:31:39.561Z,38.74
2019-04-03T16:34:13.110Z,38.93
2019-04-03T16:36:49.718Z,39.24
2019-04-03T16:39:23.584Z,39.28
2019-04-03T16:41:57.276Z,39.09
2019-04-03T16:44:31.192Z,39.60
2019-04-03T16:47:05.020Z,39.36
2019-04-03T16:49:38.601Z,39.50
2019-04-03T16:52:12.727Z,39.76
2019-04-03T16:54:46.496Z,39.69
2019-04-03T16:57:22.204Z,40.54
2019-04-03T16:59:55.415Z,40.22
2019-04-03T17:02:29.950Z,40.47
2019-04-03T17:05:03.828Z,40.77
2019-04-03T17:07:38.149Z,40.82
2019-04-03T17:10:12.576Z,40.80
2019-04-03T17:12:48.001Z,41.40
2019-04-03T17:15:22.309Z,41.68
2019-04-03T17:17:56.015Z,41.25
2019-04-03T17:20:29.776Z,41.29
2019-04-03T17:23:03.396Z,41.95
2019-04-03T17:25:45.887Z,42.22
2019-04-03T17:28:11.553Z,42.49
2019-04-03T17:30:45.183Z,42.70
2019-04-03T17:33:18.917Z,43.63
2019-04-03T17:35:52.429Z,42.66
2019-04-03T17:38:26.188Z,43.16
2019-04-03T17:41:00.068Z,43.30
2019-04-03T17:43:34.816Z,43.10
2019-04-03T17:46:15.804Z,42.85
2019-04-03T17:48:49.094Z,43.05
2019-04-03T17:51:22.934Z,43.38
2019-04-03T17:53:56.319Z,44.02
2019-04-03T17:56:31.452Z,44.34
2019-04-03T17:59:05.017Z,43.97
2019-04-03T18:01:40.963Z,43.99
2019-04-03T18:04:14.666Z,44.02
2019-04-03T18:06:48.455Z,44.00
2019-04-03T18:09:22.144Z,44.17
2019-04-03T18:11:57.845Z,44.40
2019-04-03T18:14:30.343Z,44.26
2019-04-03T18:17:03.772Z,44.68
2019-04-03T18:19:38.054Z,44.89
2019-04-03T18:22:12.923Z,44.76
2019-04-03T18:24:46.601Z,45.03
2019-04-03T18:27:20.369Z,44.67
2019-04-03T18:29:54.302Z,44.54
2019-04-03T18:32:29.771Z,45.04
2019-04-03T18:35:06.793Z,44.54
2019-04-03T18:37:40.913Z,44.61
2019-04-03T18:40:16.106Z,44.82
2019-04-03T18:42:50.189Z,44.72
2019-04-03T18:45:25.445Z,44.67
2019-04-03T18:48:00.286Z,44.72
2019-04-03T18:50:35.251Z,45.01
2019-04-03T18:53:12.393Z,45.17
2019-04-03T18:55:46.107Z,45.17
2019-04-03T18:58:19.738Z,45.54
2019-04-03T19:00:55.175Z,45.50
2019-04-03T19:03:28.809Z,45.26
2019-04-03T19:06:03.825Z,45.28
2019-04-03T19:08:38.582Z,45.99
2019-04-03T19:11:26.688Z,46.42
2019-04-03T19:14:27.095Z,46.40
2019-04-03T19:16:54.684Z,46.43
2019-04-03T19:19:28.561Z,46.27
2019-04-03T19:22:02.041Z,46.34
2019-04-03T19:24:37.148Z,46.76
2019-04-03T19:27:10.554Z,46.47
2019-04-03T19:29:44.109Z,46.63
2019-04-03T19:32:17.828Z,46.62
2019-04-03T19:34:52.395Z,47.32
2019-04-03T19:37:26.108Z,47.19
2019-04-03T19:40:01.366Z,47.76
2019-04-03T19:42:34.510Z,47.83
2019-04-03T19:45:12.630Z,47.99
2019-04-03T19:47:44.516Z,47.84
2019-04-03T19:50:18.606Z,47.86
2019-04-03T19:52:53.196Z,47.42
2019-04-03T19:55:26.995Z,47.33
2019-04-03T19:58:00.897Z,47.65
2019-04-03T20:00:34.970Z,47.77
2019-04-03T20:03:16.150Z,48.24
2019-04-03T20:05:59.521Z,48.00
2019-04-03T20:08:30.670Z,48.56
2019-04-03T20:11:05.168Z,48.45
2019-04-03T20:13:39.891Z,48.70
2019-04-03T20:16:13.879Z,48.42
2019-04-03T20:18:47.791Z,48.72
2019-04-03T20:21:21.347Z,48.92
2019-04-03T20:23:54.872Z,48.10
2019-04-03T20:26:28.582Z,48.49
2019-04-03T20:29:02.447Z,49.12
2019-04-03T20:31:36.385Z,48.25
2019-04-03T20:34:12.828Z,48.33
2019-04-03T20:36:44.927Z,48.81
2019-04-03T20:39:18.473Z,49.81
2019-04-03T20:41:52.287Z,49.13
2019-04-03T20:44:25.710Z,49.67
2019-04-03T20:46:59.358Z,49.46
2019-04-03T20:49:33.829Z,49.53
2019-04-03T20:52:10.680Z,50.94
2019-04-03T20:54:42.491Z,51.23
2019-04-03T20:57:15.935Z,50.97
2019-04-03T20:59:58.740Z,50.53
2019-04-03T21:02:25.707Z,51.48
2019-04-03T21:04:59.445Z,51.83
2019-04-03T21:07:32.925Z,52.19
2019-04-03T21:10:07.951Z,51.63
2019-04-03T21:12:41.407Z,51.37
2019-04-03T21:15:15.642Z,51.42
2019-04-03T21:17:50.058Z,51.24
2019-04-03T21:20:24.337Z,51.26
2019-04-03T21:22:58.131Z,50.99
2019-04-03T21:25:31.768Z,51.04
2019-04-03T21:28:06.258Z,49.69
2019-04-03T21:30:41.502Z,49.47
2019-04-03T21:33:17.150Z,49.62
2019-04-03T21:35:49.845Z,49.34
2019-04-03T21:38:23.672Z,48.87
2019-04-03T21:40:57.115Z,48.99
2019-04-03T21:43:30.870Z,48.11
2019-04-03T21:46:11.735Z,48.13
2019-04-03T21:48:45.260Z,47.61
2019-04-03T21:51:20.659Z,47.13
2019-04-03T21:53:55.959Z,46.65
2019-04-03T21:56:47.907Z,46.27
2019-04-03T21:59:21.103Z,46.01
2019-04-03T22:01:55.597Z,46.61
2019-04-03T22:04:29.297Z,46.39
2019-04-03T22:07:03.073Z,46.29
2019-04-03T22:09:37.126Z,45.88
2019-04-03T22:12:10.845Z,45.42
2019-04-03T22:14:44.659Z,45.62
2019-04-03T22:17:21.623Z,45.74
2019-04-03T22:19:53.407Z,44.96
2019-04-03T22:22:26.945Z,45.25
2019-04-03T22:25:00.567Z,45.51
2019-04-03T22:27:36.934Z,45.30
2019-04-03T22:30:11.022Z,45.02
2019-04-03T22:32:44.870Z,45.27
2019-04-03T22:35:18.063Z,44.91
2019-04-03T22:37:53.177Z,45.08
2019-04-03T22:40:26.734Z,44.47
2019-04-03T22:43:00.362Z,44.98
2019-04-03T22:45:35.445Z,44.53
2019-04-03T22:48:09.238Z,44.71
2019-04-03T22:50:42.948Z,43.60
2019-04-03T22:53:17.118Z,43.47
2019-04-03T22:55:51.899Z,43.41
2019-04-03T22:58:25.746Z,43.42
2019-04-03T23:01:00.749Z,43.32
2019-04-03T23:03:34.761Z,43.46
2019-04-03T23:06:08.588Z,43.65
2019-04-03T23:08:42.280Z,43.26
2019-04-03T23:11:17.441Z,42.64
2019-04-03T23:13:50.996Z,42.00
2019-04-03T23:16:24.529Z,42.42
2019-04-03T23:18:58.797Z,42.00
2019-04-03T23:21:33.927Z,42.00
2019-04-03T23:24:07.250Z,41.24
2019-04-03T23:26:40.634Z,41.07
2019-04-03T23:29:14.259Z,40.66
2019-04-03T23:31:47.769Z,40.77
2019-04-03T23:34:21.414Z,39.61
2019-04-03T23:36:56.839Z,39.02
2019-04-03T23:39:31.696Z,38.52
2019-04-03T23:42:06.989Z,38.54
2019-04-03T23:44:42.072Z,37.93
2019-04-03T23:47:16.568Z,37.87
2019-04-03T23:49:51.172Z,37.60
2019-04-03T23:52:25.273Z,37.10
2019-04-03T23:54:58.759Z,36.67
2019-04-03T23:57:32.548Z,37.00
